Terminal Aerodrome Forecast
Issued by NWS

Home | Current Version | Previous Version | Text Only | Print | Product List | Glossary On
Versions: 1 2 3 4 5 6 7 8 9 10 11 12 13 14
000
FTUS43 KGRB 242345
TAFAUW
TAF
KAUW 242345Z 2500/2524 11010KT 4SM RA BR BKN006 OVC012
      TEMPO 2500/2504 2SM RA BR
     FM250600 12008KT 4SM -SHRA BR BKN005 OVC010 WS015/20035KT
     FM251100 13007KT 5SM BR VCSH BKN006 OVC012
     FM251600 20013KT 3SM -RA BR SCT008 OVC015
     FM252000 25014G24KT P6SM VCSH BKN020=

USA.gov is the U.S. government's official web portal to all federal, state and local government web resources and services.